Time;durP1;ratioP1;P1;durP2;ratioP2;P2;SDS_P1;SDS_P2;PMS_P1;PMS_P2;Temp;Humidity;BMP_temperature;BMP_pressure;BME280_temperature;BME280_humidity;BME280_pressure;Samples;Min_cycle;Max_cycle;Signal;HPM_P1;HPM_P2
2021/09/16 00:00:52;;;;;;;23.80;16.73;;;;;;;13.75;75.81;96995.94;1733243;79;25189;-85
2021/09/16 00:03:19;;;;;;;20.52;14.47;;;;;;;13.77;75.99;96993.78;1717922;81;25842;-84
2021/09/16 00:05:46;;;;;;;20.90;16.52;;;;;;;13.81;76.01;96988.70;1718249;81;25875;-84
2021/09/16 00:08:12;;;;;;;22.02;15.80;;;;;;;13.83;76.02;96988.77;1721604;80;27570;-96
2021/09/16 00:10:39;;;;;;;19.60;15.88;;;;;;;13.86;76.01;96992.88;1742069;81;25278;-95
2021/09/16 00:13:05;;;;;;;18.98;16.05;;;;;;;13.86;76.03;96986.10;1741577;81;25622;-96
2021/09/16 00:15:32;;;;;;;25.17;15.43;;;;;;;13.81;75.95;96986.81;1743444;81;25749;-92
2021/09/16 00:17:58;;;;;;;19.32;15.43;;;;;;;13.73;76.02;96990.45;1741139;81;25657;-95
2021/09/16 00:20:25;;;;;;;20.35;15.68;;;;;;;13.74;76.26;96984.80;1741277;81;27449;-96
2021/09/16 00:22:52;;;;;;;20.08;15.32;;;;;;;13.78;76.28;96984.58;1740645;81;25721;-96
2021/09/16 00:25:19;;;;;;;20.97;14.98;;;;;;;13.77;76.28;96991.06;1741271;81;25330;-96
2021/09/16 00:27:45;;;;;;;22.15;16.23;;;;;;;13.77;76.20;96992.95;1743465;81;25725;-96
2021/09/16 00:30:12;;;;;;;18.37;15.05;;;;;;;13.77;76.25;96998.37;1740264;81;25871;-95
2021/09/16 00:32:40;;;;;;;17.00;14.53;;;;;;;13.77;76.31;96988.89;1740200;81;27376;-94
2021/09/16 00:35:07;;;;;;;18.67;14.18;;;;;;;13.77;76.31;96987.00;1740305;81;25265;-96
2021/09/16 00:37:34;;;;;;;16.27;14.18;;;;;;;13.79;76.27;96992.19;1741707;81;25327;-96
2021/09/16 00:40:01;;;;;;;22.50;15.60;;;;;;;13.78;76.20;96988.65;1743256;81;25677;-90
2021/09/16 00:42:27;;;;;;;19.48;14.80;;;;;;;13.77;76.18;96989.71;1742249;81;25244;-94
2021/09/16 00:44:54;;;;;;;17.85;15.40;;;;;;;13.75;76.18;96986.97;1723618;81;27416;-94
2021/09/16 00:47:20;;;;;;;18.25;15.23;;;;;;;13.74;76.25;96992.93;1742211;81;25240;-93
2021/09/16 00:49:47;;;;;;;16.02;13.68;;;;;;;13.72;76.26;96992.34;1707045;82;25297;-96
2021/09/16 00:52:14;;;;;;;18.35;14.93;;;;;;;13.72;76.25;96992.88;1712579;81;26344;-96
2021/09/16 00:54:45;;;;;;;20.08;14.60;;;;;;;13.69;76.25;96995.53;1729494;81;25259;-86
2021/09/16 00:57:15;;;;;;;16.85;14.90;;;;;;;13.69;76.29;96996.88;1717670;83;27447;-96
2021/09/16 00:59:45;;;;;;;19.00;14.33;;;;;;;13.66;76.33;97002.78;1712878;82;25848;-96
2021/09/16 01:02:12;;;;;;;16.90;14.10;;;;;;;13.66;76.38;96994.64;1714503;82;25818;-96
2021/09/16 01:04:39;;;;;;;18.25;15.15;;;;;;;13.65;76.40;96990.28;1715219;82;25762;-93
2021/09/16 01:07:08;;;;;;;18.10;15.28;;;;;;;13.62;76.41;96988.91;1712802;82;25715;-96
2021/09/16 01:09:36;;;;;;;18.07;15.23;;;;;;;13.60;76.43;96994.27;1712621;82;27347;-96
2021/09/16 01:12:03;;;;;;;18.87;14.38;;;;;;;13.55;76.50;96991.44;1712347;82;26512;-96
2021/09/16 01:14:30;;;;;;;21.55;15.23;;;;;;;13.55;76.61;96990.08;1715925;82;25659;-96
2021/09/16 01:16:58;;;;;;;18.73;14.87;;;;;;;13.55;76.69;96984.66;1714303;82;25793;-96
2021/09/16 01:19:24;;;;;;;22.42;14.98;;;;;;;13.51;76.77;96986.22;1712543;82;25804;-93
2021/09/16 01:21:51;;;;;;;29.18;18.17;;;;;;;13.45;76.86;96985.81;1715802;82;27315;-92
2021/09/16 01:24:18;;;;;;;32.13;18.35;;;;;;;13.39;76.97;96986.78;1696584;83;25367;-95
2021/09/16 01:26:45;;;;;;;32.20;19.05;;;;;;;13.41;77.12;96983.27;1696686;83;25840;-94
2021/09/16 01:29:13;;;;;;;32.65;19.65;;;;;;;13.42;77.17;96983.57;1710363;82;25822;-94
2021/09/16 01:31:50;;;;;;;28.75;17.60;;;;;;;13.43;77.21;96983.87;1709335;83;25772;-94
2021/09/16 01:34:19;;;;;;;20.37;16.15;;;;;;;13.45;77.20;96983.09;1712582;82;27434;-94
2021/09/16 01:36:49;;;;;;;19.85;15.18;;;;;;;13.40;77.27;96979.77;1696773;83;25769;-94
2021/09/16 01:39:17;;;;;;;18.23;14.63;;;;;;;13.34;77.30;96980.71;1713456;83;25796;-96
2021/09/16 01:41:44;;;;;;;19.02;15.32;;;;;;;13.29;77.43;96971.93;1696787;83;25752;-96
2021/09/16 01:44:11;;;;;;;20.27;15.48;;;;;;;13.32;77.55;96980.95;1696954;83;25766;-96
2021/09/16 01:46:37;;;;;;;17.62;14.63;;;;;;;13.37;77.63;96969.39;1696945;83;27459;-94
2021/09/16 01:49:04;;;;;;;20.80;15.05;;;;;;;13.41;77.63;96969.19;1697653;83;25969;-94
2021/09/16 01:51:33;;;;;;;22.40;14.93;;;;;;;13.38;77.61;96970.22;1697027;83;25744;-93
2021/09/16 01:54:01;;;;;;;18.60;15.00;;;;;;;13.32;77.65;96975.52;1697264;83;26508;-96
2021/09/16 01:56:27;;;;;;;17.85;15.78;;;;;;;13.36;77.76;96977.23;1716207;81;25918;-96
2021/09/16 01:58:54;;;;;;;18.15;14.70;;;;;;;13.40;77.77;96972.99;1742372;81;27537;-95
2021/09/16 02:01:21;;;;;;;16.80;14.00;;;;;;;13.42;77.73;96968.66;1742653;81;25227;-96
2021/09/16 02:03:48;;;;;;;18.45;13.32;;;;;;;13.46;77.72;96967.13;1740023;81;25363;-96
2021/09/16 02:06:15;;;;;;;15.65;14.05;;;;;;;13.44;77.75;96968.72;1740648;81;25695;-96
2021/09/16 02:08:42;;;;;;;18.57;14.70;;;;;;;13.47;77.78;96964.71;1742697;81;25276;-96
2021/09/16 02:11:08;;;;;;;16.07;13.72;;;;;;;13.49;77.80;96962.59;1741219;81;27440;-96
2021/09/16 02:13:35;;;;;;;17.60;14.18;;;;;;;13.50;77.81;96965.59;1740174;81;25244;-96
2021/09/16 02:16:01;;;;;;;20.90;13.80;;;;;;;13.51;77.84;96966.71;1739615;81;25778;-96
2021/09/16 02:18:28;;;;;;;19.85;13.20;;;;;;;13.55;77.84;96967.03;1740060;81;25710;-95
2021/09/16 02:20:55;;;;;;;16.67;14.47;;;;;;;13.57;77.90;96968.45;1740233;81;25790;-93
2021/09/16 02:23:22;;;;;;;19.05;14.58;;;;;;;13.59;77.92;96961.43;1740452;81;27400;-96
2021/09/16 02:25:48;;;;;;;16.35;14.70;;;;;;;13.61;77.92;96962.02;1697780;82;25781;-96
2021/09/16 02:28:15;;;;;;;18.70;15.60;;;;;;;13.63;77.91;96959.89;1706538;82;25299;-95
2021/09/16 02:30:42;;;;;;;16.95;13.68;;;;;;;13.65;77.97;96961.27;1710562;82;25814;-95
2021/09/16 02:33:09;;;;;;;19.05;15.32;;;;;;;13.65;77.97;96955.02;1741444;82;25279;-96
2021/09/16 02:35:36;;;;;;;19.70;14.43;;;;;;;13.64;78.01;96957.47;1741811;82;27551;-95
2021/09/16 02:38:03;;;;;;;18.07;14.40;;;;;;;13.65;78.03;96955.02;1740607;81;25307;-95
2021/09/16 02:40:29;;;;;;;18.57;15.20;;;;;;;13.65;78.06;96955.85;1740356;81;25693;-96
2021/09/16 02:42:56;;;;;;;20.20;14.98;;;;;;;13.62;78.09;96953.64;1740301;82;25820;-96
2021/09/16 02:45:22;;;;;;;19.15;14.00;;;;;;;13.62;78.19;96955.00;1739990;81;25797;-96
2021/09/16 02:47:49;;;;;;;15.58;13.88;;;;;;;13.60;78.22;96960.37;1740593;82;27527;-96
2021/09/16 02:50:16;;;;;;;17.87;14.07;;;;;;;13.59;78.29;96960.08;1741997;82;25307;-96
2021/09/16 02:52:43;;;;;;;18.20;15.23;;;;;;;13.64;78.36;96954.77;1741493;81;25255;-96
2021/09/16 02:55:10;;;;;;;20.17;14.58;;;;;;;13.68;78.34;96951.84;1742251;81;25736;-95
2021/09/16 02:57:37;;;;;;;18.98;14.40;;;;;;;13.68;78.35;96942.34;1731339;82;25292;-96
2021/09/16 03:00:04;;;;;;;19.60;14.78;;;;;;;13.68;78.32;96947.23;1706726;83;27207;-95
2021/09/16 03:02:31;;;;;;;17.07;13.95;;;;;;;13.67;78.34;96952.37;1699188;83;25301;-96
2021/09/16 03:04:58;;;;;;;18.00;14.60;;;;;;;13.68;78.43;96949.12;1697862;83;25301;-96
2021/09/16 03:07:24;;;;;;;17.37;14.63;;;;;;;13.67;78.43;96947.48;1697235;83;25839;-96
2021/09/16 03:09:51;;;;;;;21.23;16.57;;;;;;;13.69;78.52;96947.53;1696332;83;25687;-96
2021/09/16 03:12:17;;;;;;;29.90;18.87;;;;;;;13.65;78.59;96946.36;1697235;83;27545;-95
2021/09/16 03:14:44;;;;;;;28.27;18.80;;;;;;;13.61;78.58;96947.10;1696349;83;25790;-96
2021/09/16 03:17:11;;;;;;;28.60;18.77;;;;;;;13.54;78.65;96940.98;1700100;81;25249;-84
2021/09/16 03:19:37;;;;;;;28.67;19.20;;;;;;;13.54;78.77;96944.52;1697730;83;26861;-96
2021/09/16 03:22:04;;;;;;;27.77;18.70;;;;;;;13.57;78.94;96940.50;1698600;83;25235;-96
2021/09/16 03:24:31;;;;;;;29.98;19.80;;;;;;;13.54;78.91;96943.16;1699864;81;27435;-96
2021/09/16 03:26:57;;;;;;;36.08;19.95;;;;;;;13.57;78.96;96948.64;1696657;83;25286;-96
2021/09/16 03:29:24;;;;;;;25.15;16.87;;;;;;;13.62;79.00;96952.82;1696459;83;25378;-96
2021/09/16 03:31:52;;;;;;;24.67;16.07;;;;;;;13.62;79.00;96950.11;1696520;83;25764;-96
2021/09/16 03:34:19;;;;;;;17.52;14.73;;;;;;;13.58;78.99;96948.93;1696273;83;25823;-96
2021/09/16 03:36:46;;;;;;;24.90;16.93;;;;;;;13.56;79.03;96948.34;1697636;83;27435;-96
2021/09/16 03:39:13;;;;;;;19.87;15.85;;;;;;;13.58;79.11;96944.86;1697703;83;25273;-96
2021/09/16 03:41:40;;;;;;;20.52;15.20;;;;;;;13.62;79.10;96946.86;1697055;83;25282;-95
2021/09/16 03:44:06;;;;;;;18.73;15.55;;;;;;;13.67;79.10;96943.41;1696282;83;25819;-96
2021/09/16 03:46:33;;;;;;;19.98;15.65;;;;;;;13.65;79.13;96943.64;1696568;83;25342;-96
2021/09/16 03:48:59;;;;;;;20.37;15.30;;;;;;;13.62;79.19;96951.47;1697671;82;26887;-88
2021/09/16 03:51:26;;;;;;;20.95;15.88;;;;;;;13.65;79.25;96936.05;1701360;79;25206;-84
2021/09/16 03:53:53;;;;;;;21.82;15.83;;;;;;;13.70;79.33;96936.16;1700260;81;25274;-96
2021/09/16 03:56:19;;;;;;;19.87;15.48;;;;;;;13.70;79.31;96936.16;1699284;83;26000;-96
2021/09/16 03:58:46;;;;;;;19.30;15.63;;;;;;;13.71;79.37;96931.02;1698888;83;25302;-94
2021/09/16 04:01:13;;;;;;;23.47;16.10;;;;;;;13.68;79.37;96936.39;1724937;81;27590;-96
2021/09/16 04:03:40;;;;;;;20.00;15.23;;;;;;;13.70;79.39;96936.98;1727661;82;25248;-96
2021/09/16 04:06:06;;;;;;;21.87;15.40;;;;;;;13.74;79.42;96933.26;1727229;82;25375;-92
2021/09/16 04:08:33;;;;;;;24.00;15.70;;;;;;;13.77;79.44;96934.10;1711874;82;25680;-95
2021/09/16 04:11:00;;;;;;;22.27;16.15;;;;;;;13.80;79.42;96930.91;1730358;81;25227;-91
2021/09/16 04:13:26;;;;;;;18.82;15.38;;;;;;;13.81;79.50;96928.49;1690164;83;27593;-97
2021/09/16 04:15:53;;;;;;;20.40;15.30;;;;;;;13.80;79.47;96927.38;1691297;83;25287;-95
2021/09/16 04:18:19;;;;;;;19.67;14.70;;;;;;;13.77;79.60;96924.61;1707122;83;25718;-94
2021/09/16 04:20:46;;;;;;;21.33;15.70;;;;;;;13.78;79.66;96930.33;1706518;82;25720;-95
2021/09/16 04:23:13;;;;;;;22.30;16.67;;;;;;;13.82;79.73;96930.14;1689786;82;25179;-84
2021/09/16 04:25:39;;;;;;;22.75;15.40;;;;;;;13.87;79.68;96928.06;1722543;82;27494;-90
2021/09/16 04:28:06;;;;;;;26.50;18.30;;;;;;;13.89;79.62;96925.38;1722609;83;25245;-93
2021/09/16 04:30:32;;;;;;;27.67;19.80;;;;;;;13.92;79.61;96927.61;1716575;82;25252;-83
2021/09/16 04:32:59;;;;;;;25.25;19.50;;;;;;;13.94;79.57;96932.27;1697618;79;25764;-96
2021/09/16 04:35:25;;;;;;;31.12;20.60;;;;;;;13.98;79.61;96930.72;1715852;82;25333;-95
2021/09/16 04:37:52;;;;;;;23.87;18.00;;;;;;;13.98;79.65;96933.96;1688713;85;27544;-96
2021/09/16 04:40:19;;;;;;;23.75;17.92;;;;;;;13.95;79.69;96935.80;1722453;80;25489;-96
2021/09/16 04:42:47;;;;;;;21.35;17.12;;;;;;;13.93;79.82;96933.86;1689620;81;25178;-94
2021/09/16 04:45:14;;;;;;;24.18;17.80;;;;;;;13.91;79.81;96935.45;1721747;82;25837;-87
2021/09/16 04:47:41;;;;;;;30.27;22.13;;;;;;;13.97;79.88;96938.56;1722862;80;25340;-90
2021/09/16 04:50:10;;;;;;;26.33;22.67;;;;;;;14.03;79.88;96932.68;1721253;83;27495;-96
2021/09/16 04:52:38;;;;;;;36.70;27.22;;;;;;;14.07;79.97;96937.92;1719519;82;25954;-96
2021/09/16 04:55:06;;;;;;;37.45;27.25;;;;;;;14.12;80.01;96929.87;1686825;85;25282;-96
2021/09/16 04:57:32;;;;;;;36.42;27.45;;;;;;;14.17;79.98;96928.59;1709499;82;25926;-90
2021/09/16 04:59:59;;;;;;;35.25;24.70;;;;;;;14.20;80.08;96928.64;1698231;84;25753;-91
2021/09/16 05:02:25;;;;;;;25.35;20.82;;;;;;;14.23;80.18;96926.80;1698495;84;27445;-93
2021/09/16 05:04:52;;;;;;;25.20;20.08;;;;;;;14.23;80.20;96926.80;1698504;84;25781;-92
2021/09/16 05:07:18;;;;;;;26.73;20.20;;;;;;;14.25;80.35;96924.66;1698634;84;26363;-93
2021/09/16 05:09:45;;;;;;;20.70;17.57;;;;;;;14.28;80.40;96930.94;1698606;84;25722;-92
2021/09/16 05:12:11;;;;;;;26.00;17.90;;;;;;;14.31;80.37;96938.06;1698737;84;25291;-92
2021/09/16 05:14:38;;;;;;;20.97;16.62;;;;;;;14.38;80.43;96941.42;1698623;84;27355;-91
2021/09/16 05:17:05;;;;;;;21.37;16.42;;;;;;;14.44;80.38;96939.66;1698457;84;25721;-88
2021/09/16 05:19:31;;;;;;;28.57;18.32;;;;;;;14.50;80.44;96942.73;1698582;84;25915;-90
2021/09/16 05:21:58;;;;;;;20.65;16.67;;;;;;;14.53;80.44;96948.21;1698646;84;26389;-92
2021/09/16 05:24:24;;;;;;;20.15;16.65;;;;;;;14.56;80.42;96945.83;1698672;84;25920;-89
2021/09/16 05:26:51;;;;;;;21.20;16.48;;;;;;;14.62;80.44;96951.62;1698850;84;27399;-90
2021/09/16 05:29:18;;;;;;;19.35;16.07;;;;;;;14.68;80.38;96946.56;1698618;84;25686;-90
2021/09/16 05:31:44;;;;;;;22.75;15.13;;;;;;;14.72;80.47;96949.08;1698585;84;25742;-90
2021/09/16 05:34:11;;;;;;;20.57;15.88;;;;;;;14.75;80.50;96945.02;1698545;83;26562;-92
2021/09/16 05:36:38;;;;;;;24.77;17.00;;;;;;;14.78;80.43;96946.72;1707945;82;25748;-94
2021/09/16 05:39:05;;;;;;;22.45;17.15;;;;;;;14.85;80.51;96943.02;1713839;83;27396;-94
2021/09/16 05:41:31;;;;;;;35.95;18.55;;;;;;;14.86;80.61;96946.81;1710578;82;25833;-92
2021/09/16 05:43:58;;;;;;;29.82;17.77;;;;;;;14.89;80.60;96941.42;1727979;82;25805;-96
2021/09/16 05:46:25;;;;;;;34.20;17.67;;;;;;;14.94;80.54;96938.80;1700672;83;25895;-94
2021/09/16 05:48:52;;;;;;;33.15;18.45;;;;;;;15.02;80.49;96946.51;1707740;83;25330;-96
2021/09/16 05:51:18;;;;;;;32.90;19.35;;;;;;;15.08;80.46;96946.34;1700226;83;27415;-96
2021/09/16 05:53:45;;;;;;;32.45;18.40;;;;;;;15.16;80.55;96942.36;1702194;82;25776;-95
2021/09/16 05:56:12;;;;;;;34.73;20.70;;;;;;;15.22;80.59;96941.34;1701996;83;25276;-95
2021/09/16 05:58:39;;;;;;;32.67;19.52;;;;;;;15.31;80.67;96939.84;1702372;83;25760;-94
2021/09/16 06:01:05;;;;;;;33.73;20.10;;;;;;;15.40;80.67;96941.05;1708609;83;25709;-96
2021/09/16 06:03:32;;;;;;;26.15;17.82;;;;;;;15.50;80.65;96943.06;1726547;82;27376;-96
2021/09/16 06:05:59;;;;;;;26.40;18.60;;;;;;;15.58;80.70;96944.56;1708265;82;25775;-95
2021/09/16 06:08:25;;;;;;;26.57;17.05;;;;;;;15.67;80.69;96941.67;1710266;82;25358;-96
2021/09/16 06:10:52;;;;;;;21.25;17.42;;;;;;;15.74;80.61;96945.83;1710113;82;25839;-95
2021/09/16 06:13:19;;;;;;;23.87;18.62;;;;;;;15.82;80.64;96943.17;1710084;82;25842;-95
2021/09/16 06:15:45;;;;;;;28.15;18.42;;;;;;;15.89;80.66;96935.65;1710249;82;27362;-96
2021/09/16 06:18:14;;;;;;;25.68;18.12;;;;;;;15.98;80.55;96943.63;1710530;82;25770;-96
2021/09/16 06:20:40;;;;;;;24.52;18.30;;;;;;;16.05;80.51;96940.18;1710425;82;25782;-94
2021/09/16 06:23:07;;;;;;;25.00;17.90;;;;;;;16.13;80.57;96946.51;1710616;82;26450;-96
2021/09/16 06:25:34;;;;;;;22.80;17.57;;;;;;;16.23;80.44;96942.23;1710557;82;25784;-95
2021/09/16 06:28:00;;;;;;;24.65;17.90;;;;;;;16.29;80.43;96943.40;1710054;82;27222;-94
2021/09/16 06:30:27;;;;;;;29.15;17.67;;;;;;;16.36;80.38;96937.19;1709726;82;25715;-95
2021/09/16 06:32:53;;;;;;;25.57;17.90;;;;;;;16.43;80.29;96935.59;1710078;82;25797;-94
2021/09/16 06:35:20;;;;;;;25.52;17.67;;;;;;;16.50;80.21;96930.77;1710057;82;25895;-96
2021/09/16 06:37:47;;;;;;;21.25;17.42;;;;;;;16.60;80.24;96936.29;1710225;82;25775;-95
2021/09/16 06:40:14;;;;;;;22.58;16.65;;;;;;;16.69;80.30;96935.28;1710049;82;28115;-96
2021/09/16 06:42:40;;;;;;;20.00;16.93;;;;;;;16.78;80.29;96939.19;1709927;82;25698;-96
2021/09/16 06:45:09;;;;;;;18.17;15.80;;;;;;;16.84;80.06;96939.48;1709885;82;25791;-92
2021/09/16 06:47:36;;;;;;;18.35;16.52;;;;;;;16.91;79.99;96936.80;1709951;82;25774;-94
2021/09/16 06:50:05;;;;;;;25.37;16.75;;;;;;;16.99;79.86;96934.69;1710051;83;25820;-92
2021/09/16 06:52:31;;;;;;;22.93;16.50;;;;;;;17.06;79.88;96940.71;1709968;82;27378;-90
2021/09/16 06:54:58;;;;;;;30.20;19.12;;;;;;;17.12;79.87;96938.31;1709798;82;25720;-92
2021/09/16 06:57:25;;;;;;;25.37;19.00;;;;;;;17.18;79.90;96937.23;1709640;82;25368;-95
2021/09/16 06:59:51;;;;;;;29.70;20.17;;;;;;;17.24;79.96;96944.37;1708159;82;25728;-95
2021/09/16 07:02:18;;;;;;;25.57;18.98;;;;;;;17.30;79.96;96943.30;1708375;82;25772;-95
2021/09/16 07:04:44;;;;;;;29.05;19.50;;;;;;;17.35;79.90;96943.34;1708608;82;27481;-94
2021/09/16 07:07:12;;;;;;;25.92;18.25;;;;;;;17.43;79.85;96946.09;1708458;82;26267;-94
2021/09/16 07:09:38;;;;;;;26.15;19.32;;;;;;;17.51;79.71;96951.85;1708519;82;25920;-96
2021/09/16 07:12:05;;;;;;;30.20;18.70;;;;;;;17.62;79.60;96951.38;1708522;82;25767;-94
2021/09/16 07:14:32;;;;;;;32.55;19.90;;;;;;;17.69;79.31;96959.33;1708635;82;25278;-96
2021/09/16 07:16:59;;;;;;;23.95;18.65;;;;;;;17.77;79.13;96960.17;1708689;82;27655;-95
2021/09/16 07:19:27;;;;;;;23.50;17.70;;;;;;;17.85;79.04;96955.58;1708574;82;25692;-96
2021/09/16 07:21:54;;;;;;;26.75;20.08;;;;;;;17.94;79.08;96951.23;1708755;82;25385;-95
2021/09/16 07:24:21;;;;;;;24.30;19.50;;;;;;;18.01;79.09;96953.14;1708506;82;25737;-96
2021/09/16 07:26:51;;;;;;;28.35;19.20;;;;;;;18.08;78.80;96946.90;1708595;82;25769;-95
2021/09/16 07:29:20;;;;;;;22.35;18.45;;;;;;;18.16;78.66;96949.09;1708935;82;28355;-96
2021/09/16 07:31:49;;;;;;;28.70;17.85;;;;;;;18.24;78.59;96941.72;1708692;82;26035;-96
2021/09/16 07:34:16;;;;;;;22.87;17.85;;;;;;;18.34;78.45;96944.48;1709004;82;26337;-96
2021/09/16 07:36:46;;;;;;;23.95;17.10;;;;;;;18.44;78.45;96941.48;1709219;82;25833;-96
2021/09/16 07:39:16;;;;;;;26.60;17.98;;;;;;;18.53;78.41;96942.56;1708809;82;25699;-96
2021/09/16 07:41:43;;;;;;;24.87;18.25;;;;;;;18.64;78.33;96936.03;1708776;82;27553;-94
2021/09/16 07:44:09;;;;;;;24.40;17.62;;;;;;;18.74;78.09;96938.76;1708787;82;25262;-96
2021/09/16 07:46:36;;;;;;;21.65;17.67;;;;;;;18.84;78.01;96939.29;1709049;83;25700;-95
2021/09/16 07:49:03;;;;;;;20.05;16.93;;;;;;;18.91;77.76;96942.58;1708499;83;26419;-96
2021/09/16 07:51:29;;;;;;;22.07;16.97;;;;;;;18.99;77.67;96942.02;1708594;82;25690;-96
2021/09/16 07:53:56;;;;;;;24.40;17.57;;;;;;;19.08;77.63;96940.92;1708562;82;27489;-93
2021/09/16 07:56:22;;;;;;;20.60;16.93;;;;;;;19.15;77.50;96938.70;1708369;82;26051;-96
2021/09/16 07:58:49;;;;;;;25.72;17.65;;;;;;;19.22;77.28;96935.13;1709007;82;26046;-95
2021/09/16 08:01:16;;;;;;;26.30;17.25;;;;;;;19.28;77.34;96938.95;1710142;82;25270;-96
2021/09/16 08:03:42;;;;;;;20.12;17.07;;;;;;;19.34;77.43;96938.37;1710200;82;25664;-96
2021/09/16 08:06:10;;;;;;;24.60;18.10;;;;;;;19.42;77.34;96941.92;1710449;82;27423;-93
2021/09/16 08:08:37;;;;;;;21.55;16.95;;;;;;;19.49;77.14;96941.09;1710412;82;25799;-96
2021/09/16 08:11:03;;;;;;;20.35;16.30;;;;;;;19.58;76.83;96940.78;1710467;82;25225;-95
2021/09/16 08:13:30;;;;;;;21.12;16.93;;;;;;;19.66;76.62;96933.92;1710376;82;25671;-96
2021/09/16 08:15:56;;;;;;;22.02;17.00;;;;;;;19.74;76.64;96936.88;1710478;82;25743;-96
2021/09/16 08:18:23;;;;;;;19.20;16.75;;;;;;;19.86;76.57;96939.84;1710340;82;27578;-95
2021/09/16 08:20:50;;;;;;;20.00;17.12;;;;;;;19.97;76.51;96928.55;1710339;82;25755;-96
2021/09/16 08:23:18;;;;;;;21.10;16.35;;;;;;;20.07;76.24;96935.33;1710313;82;25736;-95
2021/09/16 08:25:45;;;;;;;20.90;15.75;;;;;;;20.18;76.07;96942.94;1710253;82;25743;-94
2021/09/16 08:28:13;;;;;;;24.98;16.10;;;;;;;20.27;75.95;96940.44;1710111;83;25767;-90
2021/09/16 08:30:41;;;;;;;18.90;15.72;;;;;;;20.35;75.77;96935.70;1710158;82;27491;-93
2021/09/16 08:33:08;;;;;;;20.40;14.98;;;;;;;20.43;75.59;96938.68;1710146;82;25795;-95
2021/09/16 08:35:35;;;;;;;40.80;15.55;;;;;;;20.55;75.93;96938.87;1711903;82;25800;-95
2021/09/16 08:38:02;;;;;;;23.40;15.30;;;;;;;20.67;75.82;96931.09;1713758;82;25677;-84
2021/09/16 08:40:29;;;;;;;16.17;14.23;;;;;;;20.77;75.98;96932.40;1718879;83;25246;-96
2021/09/16 08:42:56;;;;;;;23.05;14.28;;;;;;;20.88;75.83;96940.80;1703388;82;27273;-96
2021/09/16 08:45:23;;;;;;;16.40;14.40;;;;;;;20.97;75.53;96944.55;1721951;82;25340;-94
2021/09/16 08:47:53;;;;;;;19.15;14.50;;;;;;;21.04;75.34;96940.90;1731038;83;25290;-94
2021/09/16 08:50:25;;;;;;;21.50;14.87;;;;;;;21.13;75.13;96944.64;1732100;81;25760;-86
2021/09/16 08:52:52;;;;;;;16.07;14.03;;;;;;;21.23;74.95;96936.09;1731291;81;25351;-96
2021/09/16 08:55:20;;;;;;;17.12;12.35;;;;;;;21.29;74.12;96933.55;1713022;83;27320;-90
2021/09/16 08:57:58;;;;;;;18.45;14.35;;;;;;;21.37;73.79;96935.67;1697099;82;25248;-95
2021/09/16 09:00:27;;;;;;;20.88;13.90;;;;;;;21.47;73.89;96939.67;1700932;79;25291;-92
2021/09/16 09:02:56;;;;;;;21.07;13.65;;;;;;;21.55;73.30;96937.64;1702922;82;25773;-92
2021/09/16 09:05:23;;;;;;;16.32;13.45;;;;;;;21.64;73.23;96934.50;1719932;81;25185;-94
2021/09/16 09:07:53;;;;;;;18.37;13.18;;;;;;;21.70;73.03;96929.22;1732172;78;27563;-83
2021/09/16 09:10:45;;;;;;;18.10;13.25;;;;;;;21.77;73.04;96933.79;1731771;78;25250;-96
2021/09/16 09:13:19;;;;;;;16.60;13.83;;;;;;;21.84;72.82;96935.64;1732060;81;25296;-93
2021/09/16 09:15:49;;;;;;;14.87;13.20;;;;;;;21.97;72.26;96934.09;1731884;82;25739;-96
2021/09/16 09:18:19;;;;;;;16.52;13.88;;;;;;;22.03;72.35;96937.61;1703383;83;25178;-93
2021/09/16 09:21:02;;;;;;;17.87;11.48;;;;;;;22.03;72.35;96937.61;1731967;78;28041;-88
2021/09/16 09:23:33;;;;;;;15.98;12.82;;;;;;;22.14;71.57;96939.09;1732015;78;25297;-83
2021/09/16 09:26:22;;;;;;;18.20;13.08;;;;;;;22.14;71.57;96939.09;1727939;78;25255;-86
2021/09/16 09:28:52;;;;;;;16.02;13.40;;;;;;;22.21;70.82;96932.14;1729991;78;25852;-96
2021/09/16 09:31:25;;;;;;;20.82;14.85;;;;;;;22.24;70.40;96916.95;1726706;82;25729;-95
2021/09/16 09:33:52;;;;;;;27.65;18.95;;;;;;;22.48;70.10;96923.17;1699342;84;27381;-95
2021/09/16 09:36:22;;;;;;;25.02;16.97;;;;;;;22.63;70.41;96927.06;1701049;81;25548;-95
2021/09/16 09:38:59;;;;;;;17.57;15.53;;;;;;;22.89;69.53;96919.80;1731959;81;25327;-83
2021/09/16 09:41:36;;;;;;;21.73;14.73;;;;;;;22.89;69.53;96919.80;1731961;78;25694;-83
2021/09/16 09:44:14;;;;;;;27.82;14.95;;;;;;;23.00;69.96;96915.73;1732216;81;25267;-83
2021/09/16 09:46:53;;;;;;;17.02;12.10;;;;;;;23.09;69.71;96913.91;1731916;78;27388;-82
2021/09/16 09:49:25;;;;;;;24.57;14.13;;;;;;;23.18;69.22;96916.25;1732059;78;25236;-83
2021/09/16 09:51:55;;;;;;;23.80;13.57;;;;;;;23.28;69.09;96905.59;1732354;78;25462;-82
2021/09/16 09:54:35;;;;;;;20.80;13.40;;;;;;;23.39;68.48;96911.16;1703835;79;25602;-82
2021/09/16 09:57:10;;;;;;;18.57;12.63;;;;;;;23.49;68.15;96904.63;1716069;78;25447;-96
2021/09/16 09:59:56;;;;;;;16.30;11.88;;;;;;;23.58;68.07;96907.76;1700702;79;27382;-87
2021/09/16 10:02:27;;;;;;;16.85;11.70;;;;;;;23.71;67.20;96910.25;1723286;83;25252;-86
2021/09/16 10:04:55;;;;;;;23.50;11.90;;;;;;;23.87;66.61;96910.19;1723682;82;25764;-94
2021/09/16 10:07:37;;;;;;;13.53;11.63;;;;;;;24.07;66.09;96917.19;1719421;82;26630;-92
2021/09/16 10:10:07;;;;;;;;;;;;;;;24.30;65.81;96918.08;1707789;82;26007;-94
2021/09/16 10:12:34;;;;;;;34.15;16.87;;;;;;;24.41;64.61;96913.95;1695321;82;26895;-83
2021/09/16 10:15:01;;;;;;;30.10;17.02;;;;;;;24.48;65.49;96910.21;1718612;82;25861;-84
2021/09/16 10:17:28;;;;;;;24.40;15.05;;;;;;;24.51;65.19;96908.22;1715969;82;25321;-84
2021/09/16 10:19:55;;;;;;;19.92;15.05;;;;;;;24.55;64.99;96902.30;1715046;82;26587;-91
2021/09/16 10:22:22;;;;;;;14.83;13.13;;;;;;;24.60;64.78;96904.95;1716652;82;25801;-87
2021/09/16 10:24:52;;;;;;;17.32;13.78;;;;;;;24.56;64.46;96905.31;1714243;82;27561;-90
2021/09/16 10:27:42;;;;;;;18.12;14.30;;;;;;;24.55;64.21;96904.25;1714361;82;25769;-84
2021/09/16 10:30:29;;;;;;;18.57;13.78;;;;;;;24.52;63.76;96905.68;1714748;82;26247;-90
2021/09/16 10:33:03;;;;;;;20.37;15.43;;;;;;;24.56;64.13;96899.80;1717701;83;26540;-84
2021/09/16 10:35:32;;;;;;;22.17;16.20;;;;;;;24.65;64.21;96896.53;1692426;84;25724;-83
2021/09/16 10:38:27;;;;;;;19.30;14.00;;;;;;;24.69;63.92;96900.30;1662903;85;27431;-89
2021/09/16 10:41:17;;;;;;;16.12;13.30;;;;;;;24.71;63.55;96898.05;1664308;84;25801;-86
2021/09/16 10:44:01;;;;;;;15.13;13.53;;;;;;;24.71;63.17;96895.28;1686069;84;25794;-88
2021/09/16 10:46:43;;;;;;;16.90;14.05;;;;;;;24.71;63.08;96891.14;1691007;84;25679;-89
2021/09/16 10:49:27;;;;;;;15.23;13.68;;;;;;;24.72;62.87;96885.06;1692501;84;25862;-88
2021/09/16 10:52:14;;;;;;;21.70;12.82;;;;;;;24.75;62.59;96879.70;1692407;84;27381;-88
2021/09/16 10:54:56;;;;;;;18.48;13.03;;;;;;;24.85;62.53;96882.80;1692416;84;25535;-89
2021/09/16 10:57:39;;;;;;;19.17;14.90;;;;;;;24.94;62.36;96882.87;1692340;84;25846;-87
2021/09/16 11:00:17;;;;;;;19.50;13.30;;;;;;;25.03;62.36;96876.26;1720428;81;25799;-88
2021/09/16 11:02:49;;;;;;;15.43;11.80;;;;;;;25.08;62.37;96872.55;1739238;81;26360;-89
2021/09/16 11:05:19;;;;;;;14.35;11.60;;;;;;;25.18;62.21;96872.84;1739584;81;27453;-88
2021/09/16 11:07:52;;;;;;;14.25;12.23;;;;;;;25.29;62.32;96867.28;1739543;81;26572;-89
2021/09/16 11:10:27;;;;;;;14.93;11.60;;;;;;;25.41;62.12;96869.69;1739608;81;25311;-87
2021/09/16 11:13:04;;;;;;;14.10;11.88;;;;;;;25.56;61.76;96869.82;1739289;81;26529;-88
2021/09/16 11:15:33;;;;;;;14.90;11.20;;;;;;;25.77;61.18;96868.11;1738995;81;25722;-86
2021/09/16 11:18:10;;;;;;;11.40;10.18;;;;;;;25.94;60.58;96864.58;1739464;81;28036;-87
2021/09/16 11:20:38;;;;;;;14.98;10.80;;;;;;;26.09;60.80;96857.16;1739406;81;25723;-87
2021/09/16 11:23:05;;;;;;;11.90;10.38;;;;;;;26.24;60.06;96845.37;1739576;81;25690;-86